createdAt,value
2019-05-15T00:00:02.639Z,14.40
2019-05-15T00:01:04.749Z,14.60
2019-05-15T00:02:10.810Z,15.20
2019-05-15T00:03:14.280Z,17.20
2019-05-15T00:04:18.548Z,11.80
2019-05-15T00:05:20.750Z,14.80
2019-05-15T00:06:23.215Z,15.20
2019-05-15T00:07:25.571Z,15.20
2019-05-15T00:08:28.894Z,13.00
2019-05-15T00:09:30.834Z,15.00
2019-05-15T00:10:33.302Z,15.40
2019-05-15T00:11:38.767Z,11.00
2019-05-15T00:12:40.595Z,13.60
2019-05-15T00:13:42.834Z,17.20
2019-05-15T00:14:45.026Z,12.80
2019-05-15T00:15:48.111Z,14.80
2019-05-15T00:16:50.706Z,13.80
2019-05-15T00:17:54.623Z,11.00
2019-05-15T00:18:59.105Z,14.80
2019-05-15T00:20:02.761Z,17.20
2019-05-15T00:21:05.319Z,14.80
2019-05-15T00:22:08.606Z,14.60
2019-05-15T00:23:11.134Z,14.20
2019-05-15T00:24:13.762Z,10.20
2019-05-15T00:25:18.684Z,14.00
2019-05-15T00:26:20.606Z,11.40
2019-05-15T00:27:22.890Z,11.40
2019-05-15T00:28:25.260Z,16.40
2019-05-15T00:29:28.887Z,12.00
2019-05-15T00:30:31.796Z,13.00
2019-05-15T00:31:33.853Z,12.80
2019-05-15T00:32:38.991Z,14.00
2019-05-15T00:33:41.137Z,14.20
2019-05-15T00:34:43.385Z,14.00
2019-05-15T00:35:48.427Z,12.80
2019-05-15T00:36:50.473Z,16.20
2019-05-15T00:37:53.181Z,12.60
2019-05-15T00:38:55.702Z,12.20
2019-05-15T00:39:59.237Z,13.00
2019-05-15T00:41:01.860Z,12.40
2019-05-15T00:42:08.149Z,13.40
2019-05-15T00:43:10.684Z,11.40
2019-05-15T00:44:13.049Z,13.00
2019-05-15T00:45:18.538Z,11.80
2019-05-15T00:46:21.156Z,11.00
2019-05-15T00:47:23.354Z,14.00
2019-05-15T00:48:25.298Z,13.60
2019-05-15T00:49:28.871Z,12.80
2019-05-15T00:50:31.410Z,13.60
2019-05-15T00:51:34.303Z,15.20
2019-05-15T00:52:39.032Z,15.20
2019-05-15T00:53:42.024Z,17.80
2019-05-15T00:54:44.276Z,15.20
2019-05-15T00:55:48.539Z,12.60
2019-05-15T00:56:50.854Z,15.00
2019-05-15T00:57:52.558Z,32.00
2019-05-15T00:58:55.213Z,15.00
2019-05-15T00:59:58.990Z,17.00
2019-05-15T01:01:01.455Z,13.80
2019-05-15T01:02:04.406Z,15.00
2019-05-15T01:03:08.703Z,17.20
2019-05-15T01:04:11.410Z,10.60
2019-05-15T01:05:14.045Z,15.00
2019-05-15T01:06:16.233Z,17.40
2019-05-15T01:07:18.899Z,18.40
2019-05-15T01:08:21.218Z,15.80
2019-05-15T01:09:22.945Z,15.00
2019-05-15T01:10:28.701Z,15.20
2019-05-15T01:11:31.401Z,12.40
2019-05-15T01:12:34.119Z,14.20
2019-05-15T01:13:35.792Z,11.80
2019-05-15T01:14:38.566Z,17.40
2019-05-15T01:15:42.691Z,17.60
2019-05-15T01:16:44.865Z,15.80
2019-05-15T01:17:49.044Z,20.40
2019-05-15T01:18:50.914Z,16.60
2019-05-15T01:19:53.213Z,19.80
2019-05-15T01:20:55.518Z,19.20
2019-05-15T01:21:58.661Z,18.00
2019-05-15T01:23:01.622Z,18.60
2019-05-15T01:24:05.259Z,18.80
2019-05-15T01:25:08.669Z,16.60
2019-05-15T01:26:11.113Z,21.20
2019-05-15T01:27:13.690Z,18.00
2019-05-15T01:28:15.560Z,14.60
2019-05-15T01:29:19.032Z,13.40
2019-05-15T01:30:22.823Z,20.80
2019-05-15T01:31:24.514Z,12.00
2019-05-15T01:32:28.384Z,19.00
2019-05-15T01:33:30.777Z,20.60
2019-05-15T01:34:33.145Z,20.60
2019-05-15T01:35:35.481Z,16.20
2019-05-15T01:36:38.238Z,18.20
2019-05-15T01:37:40.820Z,13.80
2019-05-15T01:38:43.438Z,19.00
2019-05-15T01:39:45.236Z,12.20
2019-05-15T01:40:48.502Z,19.20
2019-05-15T01:41:51.096Z,18.40
2019-05-15T01:42:52.754Z,17.80
2019-05-15T01:43:55.085Z,18.40
2019-05-15T01:44:58.941Z,14.00
2019-05-15T01:46:01.381Z,18.20
2019-05-15T01:47:03.678Z,13.00
2019-05-15T01:48:08.176Z,14.00
2019-05-15T01:49:11.674Z,14.00
2019-05-15T01:50:14.606Z,11.20
2019-05-15T01:51:18.484Z,20.40
2019-05-15T01:52:20.307Z,19.00
2019-05-15T01:53:23.163Z,20.20
2019-05-15T01:54:25.424Z,13.20
2019-05-15T01:55:28.396Z,12.20
2019-05-15T01:56:30.978Z,13.60
2019-05-15T01:57:32.717Z,14.60
2019-05-15T01:58:37.998Z,13.60
2019-05-15T01:59:52.789Z,13.40
2019-05-15T02:00:43.856Z,17.40
2019-05-15T02:01:48.504Z,12.00
2019-05-15T02:02:50.794Z,13.00
2019-05-15T02:03:52.621Z,15.00
2019-05-15T02:04:55.065Z,12.80
2019-05-15T02:05:58.622Z,15.60
2019-05-15T02:07:01.462Z,10.80
2019-05-15T02:08:04.018Z,14.60
2019-05-15T02:09:08.352Z,14.40
2019-05-15T02:10:10.872Z,13.20
2019-05-15T02:11:13.760Z,14.20
2019-05-15T02:12:16.021Z,13.40
2019-05-15T02:13:18.673Z,14.00
2019-05-15T02:14:20.999Z,13.20
2019-05-15T02:15:24.397Z,12.20
2019-05-15T02:16:28.628Z,11.20
2019-05-15T02:17:30.768Z,16.00
2019-05-15T02:18:34.418Z,11.20
2019-05-15T02:19:39.017Z,12.40
2019-05-15T02:20:41.268Z,11.20
2019-05-15T02:21:43.645Z,12.80
2019-05-15T02:22:48.385Z,15.80
2019-05-15T02:23:50.400Z,13.00
2019-05-15T02:24:54.819Z,11.40
2019-05-15T02:25:58.846Z,14.40
2019-05-15T02:27:02.204Z,14.20
2019-05-15T02:28:03.912Z,11.20
2019-05-15T02:29:07.761Z,15.40
2019-05-15T02:30:22.670Z,14.40
2019-05-15T02:31:14.598Z,12.80
2019-05-15T02:32:19.270Z,14.00
2019-05-15T02:33:21.129Z,11.80
2019-05-15T02:34:23.404Z,16.40
2019-05-15T02:35:25.769Z,11.20
2019-05-15T02:36:29.394Z,12.60
2019-05-15T02:37:32.895Z,12.00
2019-05-15T02:38:35.560Z,12.60
2019-05-15T02:39:38.834Z,15.60
2019-05-15T02:40:41.745Z,13.40
2019-05-15T02:41:44.416Z,14.80
2019-05-15T02:42:49.303Z,13.00
2019-05-15T02:43:51.024Z,12.60
2019-05-15T02:44:53.301Z,14.00
2019-05-15T02:45:55.810Z,11.40
2019-05-15T02:46:58.831Z,12.00
2019-05-15T02:48:01.638Z,14.60
2019-05-15T02:49:03.912Z,10.20
2019-05-15T02:50:10.717Z,11.60
2019-05-15T02:51:11.260Z,12.40
2019-05-15T02:52:13.052Z,11.20
2019-05-15T02:53:18.986Z,13.20
2019-05-15T02:54:21.521Z,11.80
2019-05-15T02:55:23.819Z,12.00
2019-05-15T02:56:29.091Z,9.60
2019-05-15T02:57:30.293Z,13.00
2019-05-15T02:58:33.017Z,12.00
2019-05-15T02:59:35.314Z,12.40
2019-05-15T03:00:47.001Z,6.80
2019-05-15T03:01:42.618Z,11.60
2019-05-15T03:02:44.780Z,11.00
2019-05-15T03:03:49.437Z,13.80
2019-05-15T03:04:52.717Z,11.80
2019-05-15T03:05:55.519Z,14.00
2019-05-15T03:07:00.353Z,12.00
2019-05-15T03:08:01.970Z,9.80
2019-05-15T03:09:04.873Z,10.20
2019-05-15T03:10:09.395Z,8.80
2019-05-15T03:11:12.224Z,10.20
2019-05-15T03:12:14.199Z,10.40
2019-05-15T03:13:18.895Z,11.40
2019-05-15T03:14:21.593Z,12.60
2019-05-15T03:15:24.694Z,12.40
2019-05-15T03:16:30.456Z,13.00
2019-05-15T03:17:31.557Z,10.40
2019-05-15T03:18:34.180Z,12.40
2019-05-15T03:19:39.355Z,12.60
2019-05-15T03:20:41.322Z,12.60
2019-05-15T03:21:43.305Z,12.20
2019-05-15T03:22:45.528Z,13.00
2019-05-15T03:23:50.715Z,11.60
2019-05-15T03:24:51.526Z,10.60
2019-05-15T03:25:53.935Z,8.40
2019-05-15T03:26:59.051Z,10.00
2019-05-15T03:28:00.184Z,9.60
2019-05-15T03:29:02.606Z,9.20
2019-05-15T03:30:05.801Z,9.80
2019-05-15T03:31:25.845Z,8.00
2019-05-15T03:32:25.512Z,8.80
2019-05-15T03:33:25.699Z,10.00
2019-05-15T03:34:28.405Z,6.60
2019-05-15T03:35:25.133Z,7.80
2019-05-15T03:36:31.528Z,10.00
2019-05-15T03:37:34.690Z,7.00
2019-05-15T03:38:39.390Z,7.40
2019-05-15T03:39:41.532Z,7.00
2019-05-15T03:40:43.972Z,9.00
2019-05-15T03:41:49.688Z,5.00
2019-05-15T03:42:52.016Z,7.00
2019-05-15T03:43:54.273Z,8.20
2019-05-15T03:44:59.697Z,4.60
2019-05-15T03:46:01.748Z,6.40
2019-05-15T03:47:04.530Z,7.00
2019-05-15T03:48:09.255Z,7.20
2019-05-15T03:49:11.903Z,6.00
2019-05-15T03:50:14.441Z,4.80
2019-05-15T03:51:19.859Z,5.60
2019-05-15T03:52:21.830Z,5.60
2019-05-15T03:53:25.013Z,5.40
2019-05-15T03:54:29.381Z,6.80
2019-05-15T03:55:31.545Z,8.00
2019-05-15T03:56:39.023Z,5.60
2019-05-15T03:57:40.531Z,5.60
2019-05-15T03:58:44.154Z,7.00
2019-05-15T03:59:48.957Z,6.00
2019-05-15T04:00:50.180Z,5.80
2019-05-15T04:01:52.594Z,6.40
2019-05-15T04:02:55.160Z,6.60
2019-05-15T04:03:59.877Z,6.20
2019-05-15T04:05:02.363Z,5.80
2019-05-15T04:06:05.213Z,6.80
2019-05-15T04:07:09.232Z,8.60
2019-05-15T04:08:11.902Z,7.40
2019-05-15T04:09:14.444Z,6.20
2019-05-15T04:10:19.769Z,5.40
2019-05-15T04:11:20.930Z,8.20
2019-05-15T04:12:23.477Z,8.40
2019-05-15T04:13:25.936Z,9.00
2019-05-15T04:14:29.624Z,8.80
2019-05-15T04:15:32.102Z,10.80
2019-05-15T04:16:34.849Z,9.20
2019-05-15T04:17:40.099Z,8.80
2019-05-15T04:18:42.185Z,12.00
2019-05-15T04:19:44.552Z,12.00
2019-05-15T04:20:49.299Z,10.80
2019-05-15T04:21:50.711Z,7.00
2019-05-15T04:22:53.247Z,8.40
2019-05-15T04:23:58.785Z,9.80
2019-05-15T04:25:03.049Z,11.20
2019-05-15T04:26:09.346Z,6.60
2019-05-15T04:27:12.030Z,11.00
2019-05-15T04:28:19.300Z,11.20
2019-05-15T04:29:21.900Z,10.40
2019-05-15T04:30:24.217Z,11.80
2019-05-15T04:31:29.723Z,9.00
2019-05-15T04:32:30.945Z,10.20
2019-05-15T04:33:33.288Z,9.80
2019-05-15T04:34:39.456Z,9.60
2019-05-15T04:35:41.016Z,12.40
2019-05-15T04:36:45.435Z,10.20
2019-05-15T04:37:49.440Z,11.40
2019-05-15T04:38:52.084Z,11.40
2019-05-15T04:39:54.437Z,13.80
2019-05-15T04:40:58.881Z,12.40
2019-05-15T04:42:01.115Z,13.80
2019-05-15T04:43:02.909Z,14.60
2019-05-15T04:44:05.149Z,14.60
2019-05-15T04:45:10.002Z,13.60
2019-05-15T04:46:13.077Z,14.40
2019-05-15T04:47:19.016Z,15.60
2019-05-15T04:48:20.279Z,12.60
2019-05-15T04:49:23.255Z,13.40
2019-05-15T04:50:28.448Z,14.00
2019-05-15T04:51:30.652Z,13.60
2019-05-15T04:52:33.318Z,16.60
2019-05-15T04:53:39.114Z,14.60
2019-05-15T04:54:40.949Z,14.80
2019-05-15T04:55:44.905Z,16.80
2019-05-15T04:56:48.935Z,17.40
2019-05-15T04:57:51.601Z,17.40
2019-05-15T04:58:53.978Z,18.80
2019-05-15T04:59:58.718Z,17.00
2019-05-15T05:01:01.113Z,13.60
2019-05-15T05:02:26.328Z,18.00
2019-05-15T05:03:10.176Z,16.40
2019-05-15T05:04:12.951Z,17.60
2019-05-15T05:05:18.785Z,21.40
2019-05-15T05:06:20.264Z,14.20
2019-05-15T05:07:22.463Z,18.40
2019-05-15T05:08:25.258Z,16.80
2019-05-15T05:09:28.966Z,15.20
2019-05-15T05:10:31.542Z,16.40
2019-05-15T05:11:38.224Z,14.80
2019-05-15T05:12:42.673Z,19.00
2019-05-15T05:13:44.737Z,15.80
2019-05-15T05:14:48.439Z,14.20
2019-05-15T05:15:50.761Z,13.40
2019-05-15T05:16:53.569Z,20.80
2019-05-15T05:17:58.421Z,14.20
2019-05-15T05:18:59.761Z,15.80
2019-05-15T05:20:07.861Z,11.60
2019-05-15T05:21:09.754Z,15.40
2019-05-15T05:22:12.004Z,22.00
2019-05-15T05:23:14.553Z,21.40
2019-05-15T05:24:18.547Z,24.20
2019-05-15T05:25:20.856Z,27.20
2019-05-15T05:26:23.166Z,17.40
2019-05-15T05:27:25.528Z,15.80
2019-05-15T05:28:29.012Z,14.80
2019-05-15T05:29:32.758Z,22.60
2019-05-15T05:30:34.576Z,24.20
2019-05-15T05:31:39.188Z,22.20
2019-05-15T05:32:41.994Z,28.00
2019-05-15T05:33:44.372Z,23.20
2019-05-15T05:34:48.296Z,22.80
2019-05-15T05:35:52.680Z,21.20
2019-05-15T05:36:55.087Z,23.60
2019-05-15T05:37:58.336Z,20.60
2019-05-15T05:39:01.636Z,22.00
2019-05-15T05:40:07.880Z,30.20
2019-05-15T05:41:09.885Z,22.80
2019-05-15T05:42:12.241Z,24.80
2019-05-15T05:43:14.492Z,21.20
2019-05-15T05:44:18.881Z,22.40
2019-05-15T05:45:21.696Z,20.00
2019-05-15T05:46:23.399Z,24.40
2019-05-15T05:47:25.585Z,21.80
2019-05-15T05:48:29.332Z,20.60
2019-05-15T05:49:31.917Z,22.00
2019-05-15T05:50:43.909Z,25.60
2019-05-15T05:51:44.577Z,20.80
2019-05-15T05:52:49.050Z,22.20
2019-05-15T05:53:51.613Z,24.80
2019-05-15T05:54:53.993Z,24.20
2019-05-15T05:55:58.068Z,27.00
2019-05-15T05:57:00.872Z,14.40
2019-05-15T05:58:04.359Z,20.40
2019-05-15T05:59:09.162Z,19.80
2019-05-15T06:00:11.841Z,21.80
2019-05-15T06:01:14.348Z,21.00
2019-05-15T06:02:18.602Z,22.00
2019-05-15T06:03:22.715Z,26.40
2019-05-15T06:04:24.616Z,24.60
2019-05-15T06:05:28.105Z,22.20
2019-05-15T06:06:30.654Z,22.60
2019-05-15T06:07:35.480Z,22.00
2019-05-15T06:08:38.946Z,23.00
2019-05-15T06:09:42.903Z,23.20
2019-05-15T06:10:45.295Z,23.40
2019-05-15T06:11:50.728Z,22.20
2019-05-15T06:12:53.292Z,18.00
2019-05-15T06:13:58.237Z,24.60
2019-05-15T06:15:00.013Z,20.20
2019-05-15T06:16:02.478Z,21.80
2019-05-15T06:17:04.962Z,20.60
2019-05-15T06:18:08.439Z,18.40
2019-05-15T06:19:11.010Z,20.00
2019-05-15T06:20:13.998Z,21.40
2019-05-15T06:21:17.923Z,20.20
2019-05-15T06:22:20.516Z,18.60
2019-05-15T06:23:25.785Z,19.40
2019-05-15T06:24:30.629Z,21.00
2019-05-15T06:25:32.503Z,20.00
2019-05-15T06:26:35.894Z,20.00
2019-05-15T06:27:38.965Z,14.60
2019-05-15T06:28:41.632Z,16.00
2019-05-15T06:29:45.087Z,20.40
2019-05-15T06:30:48.831Z,20.00
2019-05-15T06:31:51.854Z,19.00
2019-05-15T06:33:05.664Z,18.60
2019-05-15T06:33:58.745Z,20.00
2019-05-15T06:35:01.885Z,18.40
2019-05-15T06:36:04.530Z,13.40
2019-05-15T06:37:08.366Z,15.40
2019-05-15T06:38:10.936Z,15.40
2019-05-15T06:39:13.512Z,17.00
2019-05-15T06:40:18.309Z,15.00
2019-05-15T06:41:22.736Z,18.40
2019-05-15T06:42:28.350Z,15.20
2019-05-15T06:43:30.809Z,17.00
2019-05-15T06:44:33.156Z,14.60
2019-05-15T06:45:37.884Z,15.80
2019-05-15T06:46:40.990Z,17.80
2019-05-15T06:47:43.507Z,15.20
2019-05-15T06:48:48.445Z,18.20
2019-05-15T06:49:50.398Z,19.20
2019-05-15T06:50:53.083Z,15.00
2019-05-15T06:51:54.883Z,17.60
2019-05-15T06:52:58.754Z,17.80
2019-05-15T06:54:01.582Z,18.40
2019-05-15T06:55:09.430Z,15.00
2019-05-15T06:56:11.945Z,12.60
2019-05-15T06:57:14.634Z,18.20
2019-05-15T06:58:19.185Z,16.40
2019-05-15T06:59:21.047Z,22.20
2019-05-15T07:00:23.884Z,17.40
2019-05-15T07:01:25.951Z,20.60
2019-05-15T07:02:28.672Z,21.80
2019-05-15T07:03:31.071Z,18.80
2019-05-15T07:04:33.666Z,19.60
2019-05-15T07:05:38.464Z,17.20
2019-05-15T07:06:40.364Z,19.20
2019-05-15T07:07:43.829Z,17.00
2019-05-15T07:08:49.299Z,17.40
2019-05-15T07:09:51.224Z,15.00
2019-05-15T07:10:57.884Z,12.60
2019-05-15T07:12:01.908Z,16.00
2019-05-15T07:13:05.180Z,17.40
2019-05-15T07:14:08.885Z,14.80
2019-05-15T07:15:12.167Z,14.20
2019-05-15T07:16:14.791Z,14.20
2019-05-15T07:17:17.830Z,14.80
2019-05-15T07:18:20.316Z,14.00
2019-05-15T07:19:22.861Z,13.40
2019-05-15T07:20:28.336Z,13.60
2019-05-15T07:21:31.813Z,14.00
2019-05-15T07:22:34.597Z,13.20
2019-05-15T07:23:38.653Z,15.20
2019-05-15T07:24:41.228Z,16.40
2019-05-15T07:25:45.586Z,14.80
2019-05-15T07:26:48.596Z,12.60
2019-05-15T07:27:52.329Z,13.60
2019-05-15T07:28:56.637Z,17.60
2019-05-15T07:29:58.967Z,16.80
2019-05-15T07:31:02.279Z,13.00
2019-05-15T07:32:05.163Z,16.40
2019-05-15T07:33:08.786Z,13.80
2019-05-15T07:34:11.004Z,14.60
2019-05-15T07:35:14.291Z,14.20
2019-05-15T07:36:19.135Z,14.60
2019-05-15T07:37:20.321Z,15.80
2019-05-15T07:38:22.695Z,15.60
2019-05-15T07:39:24.846Z,15.60
2019-05-15T07:40:29.342Z,14.20
2019-05-15T07:41:32.420Z,20.80
2019-05-15T07:42:38.706Z,14.20
2019-05-15T07:43:40.775Z,15.80
2019-05-15T07:44:43.161Z,21.20
2019-05-15T07:45:52.389Z,18.80
2019-05-15T07:46:49.383Z,18.20
2019-05-15T07:47:52.078Z,23.20
2019-05-15T07:48:54.365Z,18.80
2019-05-15T07:49:58.901Z,16.40
2019-05-15T07:51:01.411Z,17.00
2019-05-15T07:52:04.885Z,16.20
2019-05-15T07:53:09.482Z,15.60
2019-05-15T07:54:11.667Z,18.20
2019-05-15T07:55:13.870Z,16.00
2019-05-15T07:56:18.170Z,17.40
2019-05-15T07:57:22.520Z,19.20
2019-05-15T07:58:24.791Z,16.40
2019-05-15T07:59:27.978Z,16.60
2019-05-15T08:00:30.584Z,17.40
2019-05-15T08:01:32.933Z,13.20
2019-05-15T08:02:35.121Z,18.80
2019-05-15T08:03:47.178Z,16.60
2019-05-15T08:04:42.178Z,16.60
2019-05-15T08:05:57.972Z,15.40
2019-05-15T08:06:50.842Z,20.40
2019-05-15T08:07:53.318Z,22.80
2019-05-15T08:08:56.007Z,20.20
2019-05-15T08:09:59.167Z,16.40
2019-05-15T08:11:16.147Z,23.40
2019-05-15T08:12:08.355Z,19.00
2019-05-15T08:13:10.555Z,21.00
2019-05-15T08:14:15.487Z,21.60
2019-05-15T08:15:19.385Z,22.20
2019-05-15T08:16:22.534Z,21.80
2019-05-15T08:17:25.180Z,20.40
2019-05-15T08:18:28.565Z,19.00
2019-05-15T08:19:32.742Z,20.20
2019-05-15T08:20:35.105Z,22.00
2019-05-15T08:21:38.526Z,27.00
2019-05-15T08:22:41.395Z,17.80
2019-05-15T08:23:44.308Z,23.40
2019-05-15T08:24:48.450Z,17.80
2019-05-15T08:25:51.660Z,25.00
2019-05-15T08:26:54.070Z,23.60
2019-05-15T08:27:58.839Z,22.60
2019-05-15T08:29:01.525Z,21.80
2019-05-15T08:30:08.773Z,25.00
2019-05-15T08:31:10.631Z,22.60
2019-05-15T08:32:13.464Z,18.00
2019-05-15T08:33:17.784Z,21.00
2019-05-15T08:34:20.348Z,23.80
2019-05-15T08:35:22.932Z,22.00
2019-05-15T08:36:27.698Z,21.80
2019-05-15T08:37:30.716Z,24.60
2019-05-15T08:38:33.327Z,20.60
2019-05-15T08:39:38.019Z,23.80
2019-05-15T08:40:41.177Z,23.80
2019-05-15T08:41:44.205Z,20.00
2019-05-15T08:42:56.802Z,28.60
2019-05-15T08:43:51.851Z,21.20
2019-05-15T08:44:54.127Z,15.20
2019-05-15T08:45:58.632Z,22.00
2019-05-15T08:47:01.389Z,20.60
2019-05-15T08:48:04.008Z,20.80
2019-05-15T08:49:05.933Z,23.60
2019-05-15T08:50:09.529Z,22.00
2019-05-15T08:51:13.055Z,23.80
2019-05-15T08:52:15.894Z,21.20
2019-05-15T08:53:19.568Z,20.00
2019-05-15T08:54:22.784Z,17.80
2019-05-15T08:55:28.047Z,25.20
2019-05-15T08:56:30.264Z,22.80
2019-05-15T08:57:33.071Z,24.60
2019-05-15T08:58:38.171Z,21.60
2019-05-15T08:59:40.723Z,23.00
2019-05-15T09:00:44.177Z,22.80
2019-05-15T09:01:48.791Z,18.60
2019-05-15T09:02:50.958Z,19.80
2019-05-15T09:03:53.649Z,22.60
2019-05-15T09:04:58.076Z,22.00
2019-05-15T09:06:01.886Z,22.40
2019-05-15T09:07:03.952Z,18.80
2019-05-15T09:08:09.315Z,20.20
2019-05-15T09:09:12.577Z,19.80
2019-05-15T09:10:18.410Z,21.80
2019-05-15T09:11:20.876Z,21.20
2019-05-15T09:12:23.260Z,21.40
2019-05-15T09:13:26.106Z,23.40
2019-05-15T09:14:29.311Z,19.00
2019-05-15T09:15:33.269Z,23.60
2019-05-15T09:16:38.535Z,16.40
2019-05-15T09:17:40.832Z,16.00
2019-05-15T09:18:43.157Z,19.40
2019-05-15T09:19:45.549Z,18.80
2019-05-15T09:20:49.133Z,25.60
2019-05-15T09:21:51.997Z,15.60
2019-05-15T09:22:54.642Z,13.60
2019-05-15T09:23:58.887Z,20.60
2019-05-15T09:25:01.952Z,21.00
2019-05-15T09:26:05.200Z,16.60
2019-05-15T09:27:09.856Z,17.20
2019-05-15T09:28:12.317Z,21.60
2019-05-15T09:29:14.799Z,13.80
2019-05-15T09:30:18.231Z,15.60
2019-05-15T09:31:21.347Z,13.80
2019-05-15T09:32:23.983Z,13.40
2019-05-15T09:33:28.572Z,15.40
2019-05-15T09:34:46.723Z,15.80
2019-05-15T09:35:35.267Z,18.60
2019-05-15T09:36:40.275Z,20.20
2019-05-15T09:37:42.689Z,21.60
2019-05-15T09:38:45.125Z,21.60
2019-05-15T09:39:48.975Z,18.40
2019-05-15T09:40:52.119Z,20.60
2019-05-15T09:41:54.675Z,19.80
2019-05-15T09:42:58.215Z,24.00
2019-05-15T09:44:01.388Z,18.60
2019-05-15T09:45:08.919Z,21.40
2019-05-15T09:46:11.061Z,21.40
2019-05-15T09:47:13.831Z,14.20
2019-05-15T09:48:19.244Z,17.60
2019-05-15T09:49:22.573Z,15.00
2019-05-15T09:50:25.497Z,22.60
2019-05-15T09:51:29.042Z,15.00
2019-05-15T09:52:33.124Z,15.60
2019-05-15T09:53:35.875Z,22.80
2019-05-15T09:54:38.847Z,16.80
2019-05-15T09:55:41.678Z,16.00
2019-05-15T09:56:44.993Z,17.80
2019-05-15T09:57:49.053Z,17.80
2019-05-15T09:58:51.856Z,16.00
2019-05-15T09:59:54.458Z,22.00
2019-05-15T10:00:57.011Z,15.80
2019-05-15T10:01:59.430Z,16.20
2019-05-15T10:03:04.206Z,13.80
2019-05-15T10:04:08.323Z,13.80
2019-05-15T10:05:11.788Z,13.20
2019-05-15T10:06:14.364Z,15.00
2019-05-15T10:07:19.121Z,16.00
2019-05-15T10:08:21.726Z,14.60
2019-05-15T10:09:24.504Z,14.80
2019-05-15T10:10:28.431Z,18.00
2019-05-15T10:11:31.636Z,17.20
2019-05-15T10:12:35.077Z,13.40
2019-05-15T10:13:39.658Z,15.80
2019-05-15T10:14:42.417Z,17.80
2019-05-15T10:15:48.334Z,16.60
2019-05-15T10:16:49.851Z,13.40
2019-05-15T10:17:52.398Z,20.00
2019-05-15T10:18:54.142Z,19.00
2019-05-15T10:19:59.064Z,17.80
2019-05-15T10:21:02.290Z,13.80
2019-05-15T10:22:04.541Z,12.80
2019-05-15T10:23:08.766Z,14.40
2019-05-15T10:24:12.479Z,14.40
2019-05-15T10:25:18.810Z,13.00
2019-05-15T10:26:22.640Z,13.00
2019-05-15T10:27:25.541Z,15.20
2019-05-15T10:28:29.375Z,9.40
2019-05-15T10:29:32.291Z,13.40
2019-05-15T10:30:35.731Z,13.00
2019-05-15T10:31:38.902Z,14.80
2019-05-15T10:32:43.538Z,14.80
2019-05-15T10:33:49.208Z,12.00
2019-05-15T10:34:51.503Z,12.80
2019-05-15T10:35:55.104Z,12.00
2019-05-15T10:36:59.014Z,12.20
2019-05-15T10:38:03.610Z,11.60
2019-05-15T10:39:08.480Z,13.60
2019-05-15T10:40:10.960Z,14.80
2019-05-15T10:41:15.144Z,12.20
2019-05-15T10:42:19.318Z,12.00
2019-05-15T10:43:21.337Z,11.80
2019-05-15T10:44:23.768Z,13.00
2019-05-15T10:45:29.353Z,8.00
2019-05-15T10:46:31.654Z,9.40
2019-05-15T10:47:33.854Z,9.80
2019-05-15T10:48:38.383Z,14.00
2019-05-15T10:49:40.033Z,12.60
2019-05-15T10:50:42.723Z,12.20
2019-05-15T10:51:44.746Z,11.00
2019-05-15T10:52:48.963Z,13.60
2019-05-15T10:53:54.345Z,10.80
2019-05-15T10:54:58.166Z,11.20
2019-05-15T10:56:03.049Z,10.20
2019-05-15T10:57:08.549Z,12.80
2019-05-15T10:58:16.569Z,14.00
2019-05-15T10:59:14.308Z,12.40
2019-05-15T11:00:19.488Z,19.40
2019-05-15T11:01:21.366Z,13.60
2019-05-15T11:02:24.307Z,12.60
2019-05-15T11:03:26.677Z,9.40
2019-05-15T11:04:29.061Z,12.00
2019-05-15T11:05:44.619Z,11.20
2019-05-15T11:06:38.507Z,12.80
2019-05-15T11:07:41.506Z,10.20
2019-05-15T11:08:43.770Z,11.80
2019-05-15T11:09:48.738Z,11.40
2019-05-15T11:10:50.294Z,16.40
2019-05-15T11:11:52.624Z,13.60
2019-05-15T11:12:55.145Z,17.00
2019-05-15T11:14:00.248Z,10.60
2019-05-15T11:15:11.058Z,9.00
2019-05-15T11:16:11.684Z,12.00
2019-05-15T11:17:14.214Z,11.60
2019-05-15T11:18:16.413Z,12.20
2019-05-15T11:19:18.809Z,10.00
2019-05-15T11:20:23.069Z,12.00
2019-05-15T11:21:27.262Z,12.60
2019-05-15T11:22:30.172Z,13.60
2019-05-15T11:23:32.575Z,12.40
2019-05-15T11:24:38.353Z,11.20
2019-05-15T11:25:39.391Z,12.60
2019-05-15T11:26:41.743Z,13.40
2019-05-15T11:27:44.529Z,13.40
2019-05-15T11:28:49.733Z,9.40
2019-05-15T11:29:52.246Z,14.20
2019-05-15T11:30:54.594Z,8.80
2019-05-15T11:31:58.060Z,12.40
2019-05-15T11:33:02.507Z,14.20
2019-05-15T11:34:05.134Z,12.00
2019-05-15T11:35:11.711Z,12.20
2019-05-15T11:36:14.065Z,11.80
2019-05-15T11:37:18.760Z,10.00
2019-05-15T11:38:21.133Z,11.80
2019-05-15T11:39:24.240Z,11.00
2019-05-15T11:40:28.412Z,12.60
2019-05-15T11:41:30.886Z,12.60
2019-05-15T11:42:32.766Z,11.60
2019-05-15T11:43:38.274Z,12.00
2019-05-15T11:44:42.043Z,12.20
2019-05-15T11:45:44.786Z,13.00
2019-05-15T11:46:50.488Z,14.60
2019-05-15T11:47:54.240Z,12.40
2019-05-15T11:48:58.731Z,11.40
2019-05-15T11:50:03.755Z,12.00
2019-05-15T11:51:09.488Z,18.80
2019-05-15T11:52:11.444Z,20.60
2019-05-15T11:53:14.205Z,24.00
2019-05-15T11:54:19.155Z,24.00
2019-05-15T11:55:20.467Z,24.80
2019-05-15T11:56:23.780Z,33.80
2019-05-15T11:57:39.134Z,22.00
2019-05-15T11:58:31.850Z,34.40
2019-05-15T11:59:43.671Z,25.00
2019-05-15T12:00:39.904Z,20.80
2019-05-15T12:01:42.327Z,21.20
2019-05-15T12:02:46.767Z,23.60
2019-05-15T12:03:48.866Z,24.00
2019-05-15T12:04:52.061Z,19.00
2019-05-15T12:05:54.921Z,18.40
2019-05-15T12:06:59.726Z,20.60
2019-05-15T12:08:02.265Z,16.00
2019-05-15T12:09:08.928Z,21.20
2019-05-15T12:10:11.142Z,22.40
2019-05-15T12:11:28.759Z,19.60
2019-05-15T12:12:19.304Z,23.80
2019-05-15T12:13:23.758Z,21.00
2019-05-15T12:14:29.453Z,20.60
2019-05-15T12:15:32.734Z,20.60
2019-05-15T12:16:36.283Z,21.00
2019-05-15T12:17:39.328Z,21.20
2019-05-15T12:18:41.792Z,25.60
2019-05-15T12:19:54.904Z,23.40
2019-05-15T12:20:49.433Z,25.80
2019-05-15T12:21:55.450Z,21.80
2019-05-15T12:22:59.439Z,22.00
2019-05-15T12:24:04.121Z,20.20
2019-05-15T12:25:09.752Z,19.80
2019-05-15T12:26:13.420Z,19.20
2019-05-15T12:27:18.397Z,16.80
2019-05-15T12:28:20.286Z,20.60
2019-05-15T12:29:22.963Z,18.40
2019-05-15T12:30:29.420Z,19.60
2019-05-15T12:31:33.317Z,19.40
2019-05-15T12:32:37.664Z,17.00
2019-05-15T12:33:39.584Z,21.80
2019-05-15T12:34:41.476Z,21.60
2019-05-15T12:35:43.968Z,20.00
2019-05-15T12:36:56.835Z,18.60
2019-05-15T12:37:52.174Z,19.60
2019-05-15T12:38:54.703Z,21.40
2019-05-15T12:59:44.821Z,13.60
2019-05-15T13:00:32.772Z,15.40
2019-05-15T13:01:35.798Z,14.20
2019-05-15T13:02:39.297Z,16.60
2019-05-15T13:03:42.006Z,15.20
2019-05-15T13:04:44.106Z,16.00
2019-05-15T13:05:48.564Z,16.00
2019-05-15T13:07:10.445Z,22.00
2019-05-15T13:07:59.579Z,19.40
2019-05-15T13:09:05.241Z,20.40
2019-05-15T13:10:08.977Z,21.00
2019-05-15T13:11:15.202Z,21.60
2019-05-15T13:12:21.679Z,15.80
2019-05-15T13:13:24.270Z,23.40
2019-05-15T13:14:28.533Z,15.40
2019-05-15T13:15:31.086Z,21.40
2019-05-15T13:16:33.985Z,23.80
2019-05-15T13:17:38.765Z,27.20
2019-05-15T13:18:41.298Z,19.40
2019-05-15T13:19:44.410Z,21.20
2019-05-15T13:20:48.991Z,15.20
2019-05-15T13:21:52.128Z,19.00
2019-05-15T13:22:54.982Z,19.80
2019-05-15T13:23:58.964Z,16.80
2019-05-15T13:25:02.720Z,19.40
2019-05-15T13:26:21.504Z,17.80
2019-05-15T13:27:11.000Z,21.00
2019-05-15T13:28:13.887Z,22.40
2019-05-15T13:29:24.582Z,20.80
2019-05-15T13:30:27.239Z,20.40
2019-05-15T13:31:29.524Z,17.60
2019-05-15T13:32:31.720Z,20.00
2019-05-15T13:33:35.246Z,19.20
2019-05-15T13:34:39.212Z,17.40
2019-05-15T13:35:42.248Z,22.60
2019-05-15T13:36:44.306Z,19.40
2019-05-15T13:37:49.434Z,23.60
2019-05-15T13:38:54.095Z,20.00
2019-05-15T13:39:58.561Z,21.20
2019-05-15T13:41:01.203Z,22.00
2019-05-15T13:42:04.685Z,20.20
2019-05-15T13:43:08.363Z,24.00
2019-05-15T13:44:11.727Z,22.60
2019-05-15T13:45:15.055Z,23.20
2019-05-15T13:46:20.694Z,23.20
2019-05-15T13:47:24.964Z,21.40
2019-05-15T13:48:29.528Z,16.60
2019-05-15T13:49:31.895Z,23.40
2019-05-15T13:50:40.447Z,27.40
2019-05-15T13:51:42.311Z,22.20
2019-05-15T13:52:45.157Z,23.00
2019-05-15T13:53:49.057Z,23.40
2019-05-15T13:54:53.391Z,19.80
2019-05-15T13:55:56.140Z,24.60
2019-05-15T13:56:59.133Z,21.60